createdAt,value
2023-05-20T00:00:03.044Z,23.32
2023-05-20T00:01:03.083Z,23.32
2023-05-20T00:02:03.103Z,23.29
2023-05-20T00:03:03.268Z,23.30
2023-05-20T00:04:03.424Z,23.32
2023-05-20T00:05:03.265Z,23.29
2023-05-20T00:06:03.206Z,23.32
2023-05-20T00:07:03.252Z,23.29
2023-05-20T00:08:03.281Z,23.30
2023-05-20T00:09:03.298Z,23.30
2023-05-20T00:10:03.332Z,23.28
2023-05-20T00:11:03.374Z,23.29
2023-05-20T00:12:03.401Z,23.29
2023-05-20T00:13:03.411Z,23.29
2023-05-20T00:14:03.459Z,23.28
2023-05-20T00:15:03.442Z,23.30
2023-05-20T00:16:03.473Z,23.29
2023-05-20T00:17:03.443Z,23.29
2023-05-20T00:18:03.518Z,23.29
2023-05-20T00:19:03.546Z,23.26
2023-05-20T00:20:03.453Z,23.29
2023-05-20T00:21:03.454Z,23.29
2023-05-20T00:22:03.458Z,23.29
2023-05-20T00:23:03.465Z,23.29
2023-05-20T00:24:03.475Z,23.28
2023-05-20T00:25:03.451Z,23.29
2023-05-20T00:26:03.462Z,23.28
2023-05-20T00:27:03.477Z,23.26
2023-05-20T00:28:03.480Z,23.28
2023-05-20T00:29:03.457Z,23.28
2023-05-20T00:30:03.463Z,23.26
2023-05-20T00:31:03.479Z,23.25
2023-05-20T00:32:03.574Z,23.29
2023-05-20T00:33:03.567Z,23.29
2023-05-20T00:34:03.573Z,23.25
2023-05-20T00:35:03.605Z,23.26
2023-05-20T00:36:03.690Z,23.26
2023-05-20T00:37:03.619Z,23.28
2023-05-20T00:38:03.615Z,23.25
2023-05-20T00:39:03.600Z,23.26
2023-05-20T00:40:03.619Z,23.26
2023-05-20T00:41:03.621Z,23.25
2023-05-20T00:42:03.630Z,23.25
2023-05-20T00:43:03.644Z,23.26
2023-05-20T00:44:03.616Z,23.26
2023-05-20T00:45:03.622Z,23.26
2023-05-20T00:46:03.676Z,23.26
2023-05-20T00:47:03.658Z,23.25
2023-05-20T00:48:03.679Z,23.25
2023-05-20T00:49:03.660Z,23.26
2023-05-20T00:50:03.661Z,23.25
2023-05-20T00:51:03.652Z,23.25
2023-05-20T00:52:03.661Z,23.26
2023-05-20T00:53:03.703Z,23.25
2023-05-20T00:54:03.657Z,23.23
2023-05-20T00:55:03.672Z,23.25
2023-05-20T00:56:03.665Z,23.22
2023-05-20T00:57:03.659Z,23.23
2023-05-20T00:58:03.666Z,23.25
2023-05-20T00:59:03.665Z,23.26
2023-05-20T01:00:03.666Z,23.25
2023-05-20T01:01:03.682Z,23.22
2023-05-20T01:02:03.702Z,23.23
2023-05-20T01:03:03.775Z,23.23
2023-05-20T01:04:03.672Z,23.22
2023-05-20T01:05:03.685Z,23.23
2023-05-20T01:06:03.682Z,23.22
2023-05-20T01:07:03.671Z,23.23
2023-05-20T01:08:03.677Z,23.22
2023-05-20T01:09:03.671Z,23.21
2023-05-20T01:10:03.664Z,23.23
2023-05-20T01:11:03.644Z,23.23
2023-05-20T01:12:03.647Z,23.23
2023-05-20T01:13:03.657Z,23.21
2023-05-20T01:14:03.649Z,23.21
2023-05-20T01:15:03.654Z,23.22
2023-05-20T01:16:03.697Z,23.22
2023-05-20T01:17:03.726Z,23.22
2023-05-20T01:18:03.854Z,23.22
2023-05-20T01:19:03.809Z,23.23
2023-05-20T01:20:03.821Z,23.21
2023-05-20T01:21:03.838Z,23.23
2023-05-20T01:22:03.863Z,23.19
2023-05-20T01:23:03.890Z,23.22
2023-05-20T01:24:03.856Z,23.21
2023-05-20T01:25:03.856Z,23.19
2023-05-20T01:26:03.854Z,23.19
2023-05-20T01:27:03.856Z,23.21
2023-05-20T01:28:03.851Z,23.19
2023-05-20T01:29:03.853Z,23.21
2023-05-20T01:30:03.851Z,23.19
2023-05-20T01:31:03.842Z,23.19
2023-05-20T01:32:03.828Z,23.21
2023-05-20T01:33:03.905Z,23.19
2023-05-20T01:34:03.831Z,23.19
2023-05-20T01:35:03.803Z,23.19
2023-05-20T01:36:03.801Z,23.22
2023-05-20T01:37:03.794Z,23.19
2023-05-20T01:38:03.805Z,23.19
2023-05-20T01:39:03.822Z,23.21
2023-05-20T01:40:03.813Z,23.19
2023-05-20T01:41:03.785Z,23.19
2023-05-20T01:42:03.788Z,23.19
2023-05-20T01:43:03.793Z,23.18
2023-05-20T01:44:03.774Z,23.19
2023-05-20T01:45:03.811Z,23.18
2023-05-20T01:46:03.835Z,23.21
2023-05-20T01:47:03.902Z,23.18
2023-05-20T01:48:03.880Z,23.19
2023-05-20T01:49:03.858Z,23.19
2023-05-20T01:50:03.865Z,23.21
2023-05-20T01:51:03.847Z,23.19
2023-05-20T01:52:03.836Z,23.18
2023-05-20T01:53:03.858Z,23.17
2023-05-20T01:54:03.843Z,23.17
2023-05-20T01:55:03.831Z,23.17
2023-05-20T01:56:03.824Z,23.18
2023-05-20T01:57:03.840Z,23.17
2023-05-20T01:58:03.835Z,23.15
2023-05-20T01:59:03.815Z,23.19
2023-05-20T02:00:03.816Z,23.18
2023-05-20T02:01:03.854Z,23.19
2023-05-20T02:02:03.826Z,23.18
2023-05-20T02:03:03.924Z,23.18
2023-05-20T02:04:03.794Z,23.19
2023-05-20T02:05:03.787Z,23.17
2023-05-20T02:06:03.860Z,23.17
2023-05-20T02:07:03.767Z,23.17
2023-05-20T02:08:03.807Z,23.17
2023-05-20T02:09:03.781Z,23.18
2023-05-20T02:10:03.785Z,23.18
2023-05-20T02:11:03.845Z,23.17
2023-05-20T02:12:03.794Z,23.15
2023-05-20T02:13:03.860Z,23.15
2023-05-20T02:14:03.879Z,23.15
2023-05-20T02:15:03.902Z,23.14
2023-05-20T02:16:03.985Z,23.15
2023-05-20T02:17:04.017Z,23.15
2023-05-20T02:18:04.096Z,23.15
2023-05-20T02:19:04.131Z,23.17
2023-05-20T02:20:04.096Z,23.14
2023-05-20T02:21:04.157Z,23.14
2023-05-20T02:22:04.159Z,23.14
2023-05-20T02:23:04.212Z,23.14
2023-05-20T02:24:04.238Z,23.12
2023-05-20T02:25:04.274Z,23.17
2023-05-20T02:26:04.299Z,23.14
2023-05-20T02:27:04.337Z,23.15
2023-05-20T02:28:04.336Z,23.15
2023-05-20T02:29:04.355Z,23.15
2023-05-20T02:30:04.327Z,23.15
2023-05-20T02:31:04.365Z,23.14
2023-05-20T02:32:04.343Z,23.14
2023-05-20T02:33:04.375Z,23.14
2023-05-20T02:34:04.402Z,23.14
2023-05-20T02:35:04.335Z,23.14
2023-05-20T02:36:04.336Z,23.14
2023-05-20T02:37:04.334Z,23.17
2023-05-20T02:38:04.371Z,23.11
2023-05-20T02:39:04.332Z,23.12
2023-05-20T02:40:04.357Z,23.12
2023-05-20T02:41:04.336Z,23.14
2023-05-20T02:42:04.311Z,23.15
2023-05-20T02:43:04.311Z,23.14
2023-05-20T02:44:04.310Z,23.14
2023-05-20T02:45:04.348Z,23.12
2023-05-20T02:46:04.418Z,23.10
2023-05-20T02:47:04.459Z,23.12
2023-05-20T02:48:04.527Z,23.10
2023-05-20T02:49:04.490Z,23.14
2023-05-20T02:50:04.558Z,23.11
2023-05-20T02:51:04.555Z,23.12
2023-05-20T02:52:04.595Z,23.12
2023-05-20T02:53:04.640Z,23.14
2023-05-20T02:54:04.666Z,23.12
2023-05-20T02:55:04.695Z,23.14
2023-05-20T02:56:04.744Z,23.11
2023-05-20T02:57:04.773Z,23.12
2023-05-20T02:58:04.823Z,23.10
2023-05-20T02:59:04.830Z,23.11
2023-05-20T03:00:04.876Z,23.14
2023-05-20T03:01:04.952Z,23.10
2023-05-20T03:02:04.959Z,23.10
2023-05-20T03:03:05.069Z,23.12
2023-05-20T03:04:05.035Z,23.12
2023-05-20T03:05:05.053Z,23.11
2023-05-20T03:06:05.091Z,23.11
2023-05-20T03:07:05.240Z,23.11
2023-05-20T03:08:05.163Z,23.08
2023-05-20T03:09:05.199Z,23.10
2023-05-20T03:10:05.241Z,23.10
2023-05-20T03:11:06.623Z,23.08
2023-05-20T03:12:05.315Z,23.11
2023-05-20T03:13:05.354Z,23.11
2023-05-20T03:14:05.397Z,23.11
2023-05-20T03:15:05.427Z,23.11
2023-05-20T03:16:05.515Z,23.10
2023-05-20T03:17:05.516Z,23.11
2023-05-20T03:18:05.679Z,23.10
2023-05-20T03:19:05.607Z,23.10
2023-05-20T03:20:05.608Z,23.07
2023-05-20T03:21:05.646Z,23.07
2023-05-20T03:22:05.680Z,23.08
2023-05-20T03:23:05.728Z,23.10
2023-05-20T03:24:05.756Z,23.10
2023-05-20T03:25:05.781Z,23.08
2023-05-20T03:26:05.814Z,23.08
2023-05-20T03:27:05.847Z,23.07
2023-05-20T03:28:05.883Z,23.08
2023-05-20T03:29:05.926Z,23.07
2023-05-20T03:30:05.955Z,23.10
2023-05-20T03:31:06.060Z,23.08
2023-05-20T03:32:06.680Z,23.07
2023-05-20T03:33:06.152Z,23.10
2023-05-20T03:34:06.101Z,23.07
2023-05-20T03:35:06.164Z,23.07
2023-05-20T03:36:06.191Z,23.07
2023-05-20T03:37:06.227Z,23.07
2023-05-20T03:38:06.270Z,23.07
2023-05-20T03:39:06.341Z,23.07
2023-05-20T03:40:06.372Z,23.08
2023-05-20T03:41:06.350Z,23.07
2023-05-20T03:42:06.377Z,23.07
2023-05-20T03:43:06.422Z,23.07
2023-05-20T03:44:06.458Z,23.08
2023-05-20T03:45:06.488Z,23.05
2023-05-20T03:46:06.541Z,23.07
2023-05-20T03:47:06.599Z,23.08
2023-05-20T03:48:06.637Z,23.05
2023-05-20T03:49:06.637Z,23.05
2023-05-20T03:50:06.688Z,23.07
2023-05-20T03:51:06.724Z,23.07
2023-05-20T03:52:06.758Z,23.07
2023-05-20T03:53:06.812Z,23.07
2023-05-20T03:54:06.835Z,23.07
2023-05-20T03:55:06.867Z,23.05
2023-05-20T03:56:06.912Z,23.05
2023-05-20T03:57:06.947Z,23.07
2023-05-20T03:58:06.970Z,23.07
2023-05-20T03:59:07.013Z,23.05
2023-05-20T04:00:07.053Z,23.07
2023-05-20T04:01:07.078Z,23.05
2023-05-20T04:02:07.168Z,23.05
2023-05-20T04:03:07.210Z,23.07
2023-05-20T04:04:07.255Z,23.07
2023-05-20T04:05:07.204Z,23.05
2023-05-20T04:06:07.176Z,23.07
2023-05-20T04:07:07.168Z,23.04
2023-05-20T04:08:07.170Z,23.04
2023-05-20T04:09:07.175Z,23.04
2023-05-20T04:10:07.152Z,23.08
2023-05-20T04:11:07.142Z,23.05
2023-05-20T04:12:07.138Z,23.05
2023-05-20T04:13:07.142Z,23.04
2023-05-20T04:14:07.128Z,23.05
2023-05-20T04:15:07.129Z,23.07
2023-05-20T04:16:07.129Z,23.05
2023-05-20T04:17:07.193Z,23.04
2023-05-20T04:18:07.165Z,23.05
2023-05-20T04:19:07.127Z,23.05
2023-05-20T04:20:07.117Z,23.04
2023-05-20T04:21:07.110Z,23.04
2023-05-20T04:22:07.102Z,23.04
2023-05-20T04:23:07.113Z,23.05
2023-05-20T04:24:07.128Z,23.05
2023-05-20T04:25:07.164Z,23.05
2023-05-20T04:26:07.209Z,23.04
2023-05-20T04:27:07.238Z,23.04
2023-05-20T04:28:07.282Z,23.05
2023-05-20T04:29:07.303Z,23.04
2023-05-20T04:30:07.335Z,23.04
2023-05-20T04:31:07.400Z,23.04
2023-05-20T04:32:07.497Z,23.02
2023-05-20T04:33:07.471Z,23.04
2023-05-20T04:34:07.478Z,23.04
2023-05-20T04:35:07.519Z,23.05
2023-05-20T04:36:07.566Z,23.05
2023-05-20T04:37:07.633Z,23.07
2023-05-20T04:38:07.680Z,23.05
2023-05-20T04:39:07.696Z,23.05
2023-05-20T04:40:07.739Z,23.08
2023-05-20T04:41:07.771Z,23.07
2023-05-20T04:42:07.803Z,23.07
2023-05-20T04:43:07.858Z,23.05
2023-05-20T04:44:07.905Z,23.05
2023-05-20T04:45:07.969Z,23.05
2023-05-20T04:46:08.074Z,23.07
2023-05-20T04:47:08.032Z,23.05
2023-05-20T04:48:08.145Z,23.04
2023-05-20T04:49:08.162Z,23.04
2023-05-20T04:50:08.246Z,23.05
2023-05-20T04:51:08.258Z,23.07
2023-05-20T04:52:08.291Z,23.07
2023-05-20T04:53:08.334Z,23.04
2023-05-20T04:54:08.375Z,23.04
2023-05-20T04:55:08.416Z,23.04
2023-05-20T04:56:08.447Z,23.04
2023-05-20T04:57:08.470Z,23.04
2023-05-20T04:58:08.509Z,23.04
2023-05-20T04:59:08.502Z,23.05
2023-05-20T05:00:08.507Z,23.05
2023-05-20T05:01:08.550Z,23.04
2023-05-20T05:02:08.509Z,23.05
2023-05-20T05:03:08.574Z,23.04
2023-05-20T05:04:08.533Z,23.04
2023-05-20T05:05:08.553Z,23.05
2023-05-20T05:06:08.506Z,23.05
2023-05-20T05:07:08.509Z,23.04
2023-05-20T05:08:08.504Z,23.04
2023-05-20T05:09:08.522Z,23.02
2023-05-20T05:10:08.535Z,23.05
2023-05-20T05:11:08.517Z,23.02
2023-05-20T05:12:08.515Z,23.02
2023-05-20T05:13:08.532Z,23.04
2023-05-20T05:14:08.600Z,23.07
2023-05-20T05:15:08.626Z,23.04
2023-05-20T05:16:08.690Z,23.07
2023-05-20T05:17:08.720Z,23.05
2023-05-20T05:18:08.782Z,23.05
2023-05-20T05:19:08.941Z,23.04
2023-05-20T05:20:08.841Z,23.05
2023-05-20T05:21:08.887Z,23.04
2023-05-20T05:22:08.922Z,23.05
2023-05-20T05:23:08.973Z,23.04
2023-05-20T05:24:08.992Z,23.05
2023-05-20T05:25:09.037Z,23.05
2023-05-20T05:26:09.070Z,23.04
2023-05-20T05:27:09.115Z,23.02
2023-05-20T05:28:09.155Z,23.04
2023-05-20T05:29:11.070Z,23.04
2023-05-20T05:30:09.319Z,23.02
2023-05-20T05:31:09.345Z,23.08
2023-05-20T05:32:09.468Z,23.04
2023-05-20T05:33:09.478Z,23.04
2023-05-20T05:34:09.452Z,23.02
2023-05-20T05:35:09.490Z,23.02
2023-05-20T05:36:09.528Z,23.04
2023-05-20T05:37:09.565Z,23.07
2023-05-20T05:38:09.602Z,23.04
2023-05-20T05:39:09.632Z,23.04
2023-05-20T05:40:09.673Z,23.05
2023-05-20T05:41:09.699Z,23.04
2023-05-20T05:42:09.746Z,23.02
2023-05-20T05:43:09.775Z,23.04
2023-05-20T05:44:09.820Z,23.07
2023-05-20T05:45:09.843Z,23.04
2023-05-20T05:46:09.887Z,23.07
2023-05-20T05:47:09.989Z,23.02
2023-05-20T05:48:10.024Z,23.05
2023-05-20T05:49:10.024Z,23.02
2023-05-20T05:50:10.047Z,23.05
2023-05-20T05:51:10.074Z,23.05
2023-05-20T05:52:10.126Z,23.07
2023-05-20T05:53:10.160Z,23.04
2023-05-20T05:54:10.184Z,23.05
2023-05-20T05:55:10.225Z,23.05
2023-05-20T05:56:10.268Z,23.05
2023-05-20T05:57:10.304Z,23.04
2023-05-20T05:58:10.354Z,23.04
2023-05-20T05:59:10.348Z,23.04
2023-05-20T06:00:10.345Z,23.07
2023-05-20T06:01:10.448Z,23.08
2023-05-20T06:02:10.435Z,23.07
2023-05-20T06:03:10.560Z,23.07
2023-05-20T06:04:10.402Z,23.07
2023-05-20T06:05:10.352Z,23.05
2023-05-20T06:06:10.350Z,23.05
2023-05-20T06:07:10.357Z,23.04
2023-05-20T06:08:10.357Z,23.05
2023-05-20T06:09:10.355Z,23.07
2023-05-20T06:10:10.365Z,23.05
2023-05-20T06:11:10.358Z,23.07
2023-05-20T06:12:11.398Z,23.05
2023-05-20T06:13:10.387Z,23.07
2023-05-20T06:14:10.404Z,23.05
2023-05-20T06:15:10.397Z,23.07
2023-05-20T06:16:10.403Z,23.07
2023-05-20T06:17:10.391Z,23.07
2023-05-20T06:18:10.453Z,23.07
2023-05-20T06:19:10.397Z,23.05
2023-05-20T06:20:10.394Z,23.05
2023-05-20T06:21:10.422Z,23.02
2023-05-20T06:22:10.408Z,23.04
2023-05-20T06:23:10.413Z,23.07
2023-05-20T06:24:10.424Z,23.07
2023-05-20T06:25:10.415Z,23.05
2023-05-20T06:26:10.416Z,23.08
2023-05-20T06:27:10.428Z,23.05
2023-05-20T06:28:10.430Z,23.04
2023-05-20T06:29:10.420Z,23.05
2023-05-20T06:30:10.421Z,23.07
2023-05-20T06:31:10.471Z,23.05
2023-05-20T06:32:10.425Z,23.07
2023-05-20T06:33:10.424Z,23.05
2023-05-20T06:34:10.432Z,23.08
2023-05-20T06:35:10.431Z,23.04
2023-05-20T06:36:10.446Z,23.05
2023-05-20T06:37:10.436Z,23.08
2023-05-20T06:38:10.467Z,23.07
2023-05-20T06:39:10.450Z,23.08
2023-05-20T06:40:10.463Z,23.07
2023-05-20T06:41:10.451Z,23.08
2023-05-20T06:42:10.449Z,23.11
2023-05-20T06:43:10.460Z,23.05
2023-05-20T06:44:10.448Z,23.08
2023-05-20T06:45:10.447Z,23.08
2023-05-20T06:46:10.459Z,23.08
2023-05-20T06:47:10.447Z,23.10
2023-05-20T06:48:10.459Z,23.10
2023-05-20T06:49:10.474Z,23.08
2023-05-20T06:50:10.488Z,23.07
2023-05-20T06:51:10.462Z,23.10
2023-05-20T06:52:10.438Z,23.10
2023-05-20T06:53:10.440Z,23.11
2023-05-20T06:54:10.465Z,23.10
2023-05-20T06:55:10.440Z,23.10
2023-05-20T06:56:10.443Z,23.10
2023-05-20T06:57:10.433Z,23.11
2023-05-20T06:58:10.439Z,23.11
2023-05-20T06:59:10.437Z,23.12
2023-05-20T07:00:10.466Z,23.10
2023-05-20T07:01:10.548Z,23.12
2023-05-20T07:02:10.686Z,23.12
2023-05-20T07:03:10.743Z,23.14
2023-05-20T07:04:10.836Z,23.12
2023-05-20T07:05:10.794Z,23.14
2023-05-20T07:06:10.842Z,23.11
2023-05-20T07:07:10.877Z,23.12
2023-05-20T07:08:10.908Z,23.14
2023-05-20T07:09:10.939Z,23.12
2023-05-20T07:10:10.967Z,23.14
2023-05-20T07:11:10.997Z,23.14
2023-05-20T07:12:11.039Z,23.15
2023-05-20T07:13:11.090Z,23.15
2023-05-20T07:14:11.111Z,23.17
2023-05-20T07:15:11.150Z,23.17
2023-05-20T07:16:11.236Z,23.17
2023-05-20T07:17:11.216Z,23.17
2023-05-20T07:18:11.301Z,23.17
2023-05-20T07:19:11.328Z,23.18
2023-05-20T07:20:11.325Z,23.19
2023-05-20T07:21:11.362Z,23.19
2023-05-20T07:22:11.401Z,23.17
2023-05-20T07:23:12.062Z,23.18
2023-05-20T07:24:11.472Z,23.19
2023-05-20T07:25:11.514Z,23.19
2023-05-20T07:26:11.556Z,23.19
2023-05-20T07:27:11.590Z,23.21
2023-05-20T07:28:11.640Z,23.18
2023-05-20T07:29:11.681Z,23.21
2023-05-20T07:30:11.723Z,23.21
2023-05-20T07:31:11.787Z,23.21
2023-05-20T07:32:11.802Z,23.22
2023-05-20T07:33:11.836Z,23.22
2023-05-20T07:34:11.875Z,23.23
2023-05-20T07:35:11.906Z,23.21
2023-05-20T07:36:11.946Z,23.22
2023-05-20T07:37:11.972Z,23.25
2023-05-20T07:38:12.010Z,23.26
2023-05-20T07:39:14.352Z,23.23
2023-05-20T07:40:12.047Z,23.23
2023-05-20T07:41:12.045Z,23.25
2023-05-20T07:42:12.050Z,23.25
2023-05-20T07:43:12.048Z,23.26
2023-05-20T07:44:12.055Z,23.29
2023-05-20T07:45:12.121Z,23.26
2023-05-20T07:46:12.091Z,23.30
2023-05-20T07:47:12.084Z,23.28
2023-05-20T07:48:12.117Z,23.28
2023-05-20T07:49:12.088Z,23.28
2023-05-20T07:50:12.079Z,23.28
2023-05-20T07:51:12.101Z,23.30
2023-05-20T07:52:12.103Z,23.30
2023-05-20T07:53:12.124Z,23.32
2023-05-20T07:54:12.100Z,23.30
2023-05-20T07:55:12.108Z,23.30
2023-05-20T07:56:12.100Z,23.33
2023-05-20T07:57:12.102Z,23.33
2023-05-20T07:58:12.110Z,23.33
2023-05-20T07:59:12.111Z,23.36
2023-05-20T08:00:12.125Z,23.36
2023-05-20T08:01:12.119Z,23.36
2023-05-20T08:02:12.171Z,23.38
2023-05-20T08:03:12.377Z,23.38
2023-05-20T08:04:12.265Z,23.36
2023-05-20T08:05:12.153Z,23.38
2023-05-20T08:06:12.121Z,23.39
2023-05-20T08:07:12.127Z,23.38
2023-05-20T08:08:12.128Z,23.38
2023-05-20T08:09:12.112Z,23.42
2023-05-20T08:10:12.144Z,23.41
2023-05-20T08:11:12.109Z,23.42
2023-05-20T08:12:12.102Z,23.42
2023-05-20T08:13:12.097Z,23.42
2023-05-20T08:14:12.242Z,23.41
2023-05-20T08:15:12.099Z,23.41
2023-05-20T08:16:12.175Z,23.44
2023-05-20T08:17:12.306Z,23.45
2023-05-20T08:18:12.177Z,23.42
2023-05-20T08:19:12.164Z,23.45
2023-05-20T08:20:12.094Z,23.45
2023-05-20T08:21:12.102Z,23.45
2023-05-20T08:22:12.080Z,23.45
2023-05-20T08:23:12.090Z,23.45
2023-05-20T08:24:12.087Z,23.46
2023-05-20T08:25:12.069Z,23.48
2023-05-20T08:26:12.102Z,23.46
2023-05-20T08:27:12.057Z,23.46
2023-05-20T08:28:12.057Z,23.46
2023-05-20T08:29:12.062Z,23.46
2023-05-20T08:30:12.057Z,23.48
2023-05-20T08:31:12.088Z,23.49
2023-05-20T08:32:12.048Z,23.46
2023-05-20T08:33:12.254Z,23.49
2023-05-20T08:34:12.052Z,23.48
2023-05-20T08:35:12.035Z,23.50
2023-05-20T08:36:12.117Z,23.49
2023-05-20T08:37:12.045Z,23.50
2023-05-20T08:38:12.037Z,23.49
2023-05-20T08:39:12.040Z,23.48
2023-05-20T08:40:12.043Z,23.49
2023-05-20T08:41:12.049Z,23.50
2023-05-20T08:42:12.043Z,23.49
2023-05-20T08:43:12.035Z,23.50
2023-05-20T08:44:12.053Z,23.49
2023-05-20T08:45:12.029Z,23.48
2023-05-20T08:46:12.064Z,23.52
2023-05-20T08:47:12.033Z,23.52
2023-05-20T08:48:12.067Z,23.50
2023-05-20T08:49:12.059Z,23.50
2023-05-20T08:50:12.049Z,23.50
2023-05-20T08:51:12.057Z,23.53
2023-05-20T08:52:12.041Z,23.52
2023-05-20T08:53:12.043Z,23.52
2023-05-20T08:54:12.045Z,23.52
2023-05-20T08:55:12.042Z,23.49
2023-05-20T08:56:12.035Z,23.52
2023-05-20T08:57:12.034Z,23.50
2023-05-20T08:58:12.037Z,23.50
2023-05-20T08:59:12.173Z,23.52
2023-05-20T09:00:12.028Z,23.53
2023-05-20T09:01:12.049Z,23.53
2023-05-20T09:02:12.126Z,23.55
2023-05-20T09:03:12.076Z,23.53
2023-05-20T09:04:12.041Z,23.52
2023-05-20T09:05:12.084Z,23.53
2023-05-20T09:06:12.053Z,23.52
2023-05-20T09:07:12.037Z,23.53
2023-05-20T09:08:12.049Z,23.55
2023-05-20T09:09:12.037Z,23.53
2023-05-20T09:10:12.055Z,23.53
2023-05-20T09:11:12.045Z,23.53
2023-05-20T09:12:12.034Z,23.53
2023-05-20T09:13:12.028Z,23.55
2023-05-20T09:14:12.060Z,23.53
2023-05-20T09:15:12.059Z,23.53
2023-05-20T09:16:12.061Z,23.55
2023-05-20T09:17:12.037Z,23.50
2023-05-20T09:18:12.139Z,23.53
2023-05-20T09:19:12.098Z,23.55
2023-05-20T09:20:12.056Z,23.53
2023-05-20T09:21:12.012Z,23.55
2023-05-20T09:22:12.012Z,23.53
2023-05-20T09:23:12.004Z,23.53
2023-05-20T09:24:12.017Z,23.55
2023-05-20T09:25:11.994Z,23.52
2023-05-20T09:26:12.010Z,23.53
2023-05-20T09:27:12.016Z,23.53
2023-05-20T09:28:12.043Z,23.55
2023-05-20T09:29:12.036Z,23.55
2023-05-20T09:30:12.061Z,23.57
2023-05-20T09:31:12.070Z,23.56
2023-05-20T09:32:12.129Z,23.56
2023-05-20T09:33:12.095Z,23.55
2023-05-20T09:34:12.117Z,23.57
2023-05-20T09:35:12.132Z,23.57
2023-05-20T09:36:12.272Z,23.57
2023-05-20T09:37:12.142Z,23.57
2023-05-20T09:38:12.153Z,23.60
2023-05-20T09:39:12.178Z,23.59
2023-05-20T09:40:12.176Z,23.59
2023-05-20T09:41:12.181Z,23.60
2023-05-20T09:42:12.180Z,23.60
2023-05-20T09:43:12.181Z,23.62
2023-05-20T09:44:12.179Z,23.60
2023-05-20T09:45:12.183Z,23.62
2023-05-20T09:46:12.232Z,23.62
2023-05-20T09:47:12.194Z,23.62
2023-05-20T09:48:12.206Z,23.64
2023-05-20T09:49:12.186Z,23.62
2023-05-20T09:50:12.207Z,23.60
2023-05-20T09:51:12.177Z,23.63
2023-05-20T09:52:12.177Z,23.63
2023-05-20T09:53:12.193Z,23.63
2023-05-20T09:54:12.195Z,23.63
2023-05-20T09:55:12.182Z,23.62
2023-05-20T09:56:12.167Z,23.63
2023-05-20T09:57:12.172Z,23.64
2023-05-20T09:58:12.761Z,23.63
2023-05-20T09:59:12.168Z,23.66
2023-05-20T10:00:12.169Z,23.63
2023-05-20T10:01:12.197Z,23.63
2023-05-20T10:02:12.177Z,23.64
2023-05-20T10:03:12.234Z,23.64
2023-05-20T10:04:12.172Z,23.66
2023-05-20T10:05:12.176Z,23.64
2023-05-20T10:06:12.152Z,23.66
2023-05-20T10:07:12.156Z,23.67
2023-05-20T10:08:12.147Z,23.66
2023-05-20T10:09:12.181Z,23.67
2023-05-20T10:10:12.154Z,23.67
2023-05-20T10:11:12.180Z,23.69
2023-05-20T10:12:12.154Z,23.69
2023-05-20T10:13:12.195Z,23.67
2023-05-20T10:14:12.156Z,23.67
2023-05-20T10:15:12.164Z,23.70
2023-05-20T10:16:12.176Z,23.69
2023-05-20T10:17:12.182Z,23.70
2023-05-20T10:18:12.170Z,23.70
2023-05-20T10:19:12.217Z,23.69
2023-05-20T10:20:12.147Z,23.70
2023-05-20T10:21:12.148Z,23.71
2023-05-20T10:22:12.153Z,23.71
2023-05-20T10:23:12.153Z,23.71
2023-05-20T10:24:12.147Z,23.70
2023-05-20T10:25:12.158Z,23.73
2023-05-20T10:26:12.171Z,23.74
2023-05-20T10:27:12.144Z,23.74
2023-05-20T10:28:12.137Z,23.74
2023-05-20T10:29:12.159Z,23.71
2023-05-20T10:30:12.156Z,23.74
2023-05-20T10:31:12.135Z,23.77
2023-05-20T10:32:12.184Z,23.76
2023-05-20T10:33:12.187Z,23.76
2023-05-20T10:34:12.114Z,23.76
2023-05-20T10:35:12.114Z,23.74
2023-05-20T10:36:12.120Z,23.76
2023-05-20T10:37:12.109Z,23.79
2023-05-20T10:38:12.095Z,23.79
2023-05-20T10:39:12.099Z,23.80
2023-05-20T10:40:12.105Z,23.79
2023-05-20T10:41:12.073Z,23.79
2023-05-20T10:42:12.079Z,23.81
2023-05-20T10:43:12.071Z,23.77
2023-05-20T10:44:12.068Z,23.79
2023-05-20T10:45:12.065Z,23.79
2023-05-20T10:46:26.270Z,23.79
2023-05-20T10:48:12.074Z,23.81
2023-05-20T10:49:12.115Z,23.83
2023-05-20T10:50:12.035Z,23.83
2023-05-20T10:51:12.024Z,23.81
2023-05-20T10:52:12.013Z,23.83
2023-05-20T10:53:21.741Z,23.81
2023-05-20T10:54:13.014Z,23.81
2023-05-20T10:55:12.007Z,23.84
2023-05-20T10:56:12.001Z,23.84
2023-05-20T10:57:12.009Z,23.88
2023-05-20T10:58:12.000Z,23.85
2023-05-20T10:59:11.996Z,23.85
2023-05-20T11:00:11.972Z,23.87
2023-05-20T11:01:12.029Z,23.85
2023-05-20T11:02:11.971Z,23.88
2023-05-20T11:03:12.010Z,23.88
2023-05-20T11:04:12.012Z,23.90
2023-05-20T11:05:11.963Z,23.88
2023-05-20T11:06:11.956Z,23.91
2023-05-20T11:07:11.946Z,23.90
2023-05-20T11:08:24.623Z,23.90
2023-05-20T11:09:12.956Z,23.93
2023-05-20T11:10:11.936Z,23.91
2023-05-20T11:11:11.941Z,23.93
2023-05-20T11:12:11.945Z,23.93
2023-05-20T11:13:11.972Z,23.94
2023-05-20T11:14:11.937Z,23.93
2023-05-20T11:15:11.933Z,23.94
2023-05-20T11:16:11.933Z,23.93
2023-05-20T11:17:11.971Z,23.96
2023-05-20T11:18:11.952Z,23.94
2023-05-20T11:19:11.931Z,23.96
2023-05-20T11:20:11.914Z,23.93
2023-05-20T11:21:11.903Z,23.96
2023-05-20T11:22:11.892Z,23.97
2023-05-20T11:23:11.896Z,23.96
2023-05-20T11:24:11.913Z,23.96
2023-05-20T11:25:11.875Z,23.94
2023-05-20T11:26:11.878Z,23.96
2023-05-20T11:27:11.878Z,23.96
2023-05-20T11:28:11.864Z,23.97
2023-05-20T11:29:11.865Z,23.97
2023-05-20T11:30:11.850Z,23.97
2023-05-20T11:31:11.856Z,23.97
2023-05-20T11:32:11.893Z,23.97
2023-05-20T11:33:11.909Z,23.98
2023-05-20T11:34:11.842Z,23.96
2023-05-20T11:35:11.839Z,23.96
2023-05-20T11:36:23.916Z,23.97
2023-05-20T11:37:12.850Z,23.97
2023-05-20T11:38:11.847Z,23.98
2023-05-20T11:39:11.882Z,23.97
2023-05-20T11:40:11.847Z,23.98
2023-05-20T11:41:11.851Z,23.96
2023-05-20T11:42:11.849Z,23.96
2023-05-20T11:43:11.845Z,23.96
2023-05-20T11:44:11.848Z,23.97
2023-05-20T11:45:11.850Z,23.97
2023-05-20T11:46:11.890Z,23.96
2023-05-20T11:47:11.834Z,23.97
2023-05-20T11:48:11.934Z,23.97
2023-05-20T11:49:11.827Z,23.93
2023-05-20T11:50:11.852Z,23.94
2023-05-20T11:51:11.811Z,23.94
2023-05-20T11:52:11.812Z,23.96
2023-05-20T11:53:11.849Z,23.96
2023-05-20T11:54:11.827Z,23.96
2023-05-20T11:55:11.815Z,23.94
2023-05-20T11:56:11.802Z,23.94
2023-05-20T11:57:11.809Z,23.93
2023-05-20T11:58:11.801Z,23.94
2023-05-20T11:59:11.799Z,23.94
2023-05-20T12:00:11.884Z,23.94
2023-05-20T12:01:21.536Z,23.94
2023-05-20T12:02:14.137Z,23.93
2023-05-20T12:03:11.945Z,23.93
2023-05-20T12:04:11.972Z,23.93
2023-05-20T12:05:11.799Z,23.94
2023-05-20T12:06:11.811Z,23.96
2023-05-20T12:07:11.796Z,23.96
2023-05-20T12:08:11.784Z,23.94
2023-05-20T12:09:11.783Z,23.96
2023-05-20T12:10:11.782Z,23.94
2023-05-20T12:11:11.784Z,23.94
2023-05-20T12:12:11.774Z,23.97
2023-05-20T12:13:11.749Z,23.94
2023-05-20T12:14:11.750Z,23.93
2023-05-20T12:15:11.726Z,23.96
2023-05-20T12:16:11.733Z,23.91
2023-05-20T12:17:11.718Z,23.96
2023-05-20T12:18:11.736Z,23.94
2023-05-20T12:19:11.803Z,23.93
2023-05-20T12:20:11.785Z,23.94
2023-05-20T12:21:11.720Z,23.93
2023-05-20T12:22:11.719Z,23.94
2023-05-20T12:23:11.729Z,23.93
2023-05-20T12:24:11.715Z,23.96
2023-05-20T12:25:11.717Z,23.91
2023-05-20T12:26:11.707Z,23.93
2023-05-20T12:27:11.771Z,23.91
2023-05-20T12:28:11.702Z,23.93
2023-05-20T12:29:11.719Z,23.93
2023-05-20T12:30:11.811Z,23.93
2023-05-20T12:31:11.729Z,23.94
2023-05-20T12:32:11.726Z,23.96
2023-05-20T12:33:11.697Z,23.93
2023-05-20T12:34:11.701Z,23.93
2023-05-20T12:35:11.690Z,23.96
2023-05-20T12:36:11.678Z,23.94
2023-05-20T12:37:11.661Z,23.94
2023-05-20T12:38:11.654Z,23.94
2023-05-20T12:39:11.655Z,23.94
2023-05-20T12:40:11.657Z,23.94
2023-05-20T12:41:11.654Z,23.93
2023-05-20T12:42:11.661Z,23.96
2023-05-20T12:43:11.652Z,23.94
2023-05-20T12:44:11.672Z,23.94
2023-05-20T12:45:11.642Z,23.97
2023-05-20T12:46:11.630Z,23.94
2023-05-20T12:47:11.675Z,23.94
2023-05-20T12:48:11.682Z,23.97
2023-05-20T12:49:11.646Z,23.96
2023-05-20T12:50:11.603Z,23.97
2023-05-20T12:51:11.605Z,23.94
2023-05-20T12:52:18.962Z,23.94
2023-05-20T12:53:12.590Z,23.96